Time;durP1;ratioP1;P1;durP2;ratioP2;P2;SDS_P1;SDS_P2;PMS_P1;PMS_P2;Temp;Humidity;BMP_temperature;BMP_pressure;BME280_temperature;BME280_humidity;BME280_pressure;Samples;Min_cycle;Max_cycle;Signal;HPM_P1;HPM_P2
2021/05/17 00:00:12;;;;;;;0.30;0.30;;;9.80;99.90;;;;;;5073267;28;20024;-85
2021/05/17 00:02:38;;;;;;;0.45;0.45;;;9.80;99.90;;;;;;5072817;28;20202;-86
2021/05/17 00:05:06;;;;;;;0.20;0.20;;;9.90;99.90;;;;;;5073709;28;20063;-85
2021/05/17 00:07:31;;;;;;;0.47;0.47;;;9.80;99.90;;;;;;5068267;28;20521;-85
2021/05/17 00:09:57;;;;;;;0.25;0.25;;;9.90;99.90;;;;;;5069098;28;20078;-85
2021/05/17 00:12:23;;;;;;;0.10;0.10;;;9.90;99.90;;;;;;5067743;28;20036;-85
2021/05/17 00:14:49;;;;;;;0.25;0.25;;;9.60;99.90;;;;;;5068936;28;20129;-85
2021/05/17 00:17:15;;;;;;;2.85;1.02;;;9.40;99.90;;;;;;5080981;28;20042;-86
2021/05/17 00:19:41;;;;;;;0.17;0.17;;;9.40;99.90;;;;;;5084603;28;20020;-86
2021/05/17 00:22:07;;;;;;;0.85;0.82;;;9.40;99.90;;;;;;5089090;28;20076;-86
2021/05/17 00:24:33;;;;;;;0.17;0.17;;;9.30;99.90;;;;;;5074777;28;20035;-85
2021/05/17 00:26:59;;;;;;;0.10;0.10;;;9.30;99.90;;;;;;5067000;28;20032;-86
2021/05/17 00:29:26;;;;;;;0.10;0.10;;;9.40;99.90;;;;;;5073172;28;20046;-85
2021/05/17 00:31:52;;;;;;;0.60;0.60;;;9.50;99.90;;;;;;5068804;28;20508;-85
2021/05/17 00:34:18;;;;;;;0.10;0.10;;;9.50;99.90;;;;;;5067891;28;20071;-86
2021/05/17 00:36:44;;;;;;;0.13;0.13;;;9.50;99.90;;;;;;5079725;28;20066;-85
2021/05/17 00:39:12;;;;;;;0.40;0.40;;;9.50;99.90;;;;;;5082001;28;20036;-85
2021/05/17 00:41:39;;;;;;;0.40;0.40;;;9.40;99.90;;;;;;5066210;28;20047;-85
2021/05/17 00:44:25;;;;;;;0.10;0.10;;;9.30;99.90;;;;;;5072940;28;20115;-85
2021/05/17 00:47:03;;;;;;;0.25;0.25;;;9.10;99.90;;;;;;5059210;28;20042;-85
2021/05/17 00:49:29;;;;;;;5.60;1.13;;;9.00;99.90;;;;;;5089129;28;20024;-85
2021/05/17 00:51:55;;;;;;;0.10;0.10;;;9.00;99.90;;;;;;5087783;28;20031;-85
2021/05/17 00:54:21;;;;;;;0.10;0.10;;;9.10;99.90;;;;;;5073229;28;20499;-85
2021/05/17 00:56:47;;;;;;;1.35;0.82;;;9.10;99.90;;;;;;5071669;28;20024;-85
2021/05/17 00:59:13;;;;;;;0.10;0.10;;;9.20;99.90;;;;;;5074322;28;20110;-85
2021/05/17 01:01:38;;;;;;;0.10;0.10;;;9.10;99.90;;;;;;5067354;28;20525;-85
2021/05/17 01:04:04;;;;;;;3.15;0.93;;;9.30;99.90;;;;;;5085548;28;20028;-85
2021/05/17 01:06:32;;;;;;;0.10;0.10;;;9.40;99.90;;;;;;5080812;28;20012;-85
2021/05/17 01:08:59;;;;;;;0.73;0.73;;;9.50;99.90;;;;;;5080411;28;20084;-84
2021/05/17 01:11:27;;;;;;;0.57;0.50;;;9.60;99.90;;;;;;5088129;28;20431;-85
2021/05/17 01:14:18;;;;;;;0.10;0.10;;;9.60;99.90;;;;;;5074391;28;20135;-84
2021/05/17 01:16:43;;;;;;;0.10;0.10;;;9.50;99.90;;;;;;5070066;28;20028;-85
2021/05/17 01:19:12;;;;;;;2.05;0.85;;;9.40;99.90;;;;;;5071239;28;20042;-85
2021/05/17 01:21:40;;;;;;;1.65;1.02;;;9.30;99.90;;;;;;5061585;28;20017;-85
2021/05/17 01:24:07;;;;;;;0.30;0.30;;;9.10;99.90;;;;;;5079266;28;20024;-85
2021/05/17 01:26:36;;;;;;;2.65;1.55;;;8.90;99.90;;;;;;5074360;28;20114;-86
2021/05/17 01:29:07;;;;;;;0.30;0.30;;;8.90;99.90;;;;;;5074384;28;20507;-85
2021/05/17 01:31:35;;;;;;;0.40;0.40;;;8.90;99.90;;;;;;5067239;28;20067;-85
2021/05/17 01:34:02;;;;;;;0.10;0.10;;;8.90;99.90;;;;;;5083041;28;20119;-85
2021/05/17 01:36:27;;;;;;;0.20;0.20;;;8.80;99.90;;;;;;5057100;28;20029;-85
2021/05/17 01:38:55;;;;;;;0.80;0.80;;;8.70;99.90;;;;;;5068987;28;20055;-85
2021/05/17 01:41:24;;;;;;;0.90;0.82;;;8.70;99.90;;;;;;5071337;28;20035;-85
2021/05/17 01:43:53;;;;;;;0.43;0.40;;;8.80;99.90;;;;;;5072461;28;20126;-85
2021/05/17 01:46:34;;;;;;;4.07;0.77;;;8.70;99.90;;;;;;5074070;28;20016;-85
2021/05/17 01:49:00;;;;;;;0.35;0.35;;;8.80;99.90;;;;;;5074240;28;20036;-85
2021/05/17 01:51:26;;;;;;;1.65;0.73;;;9.00;99.90;;;;;;5078403;28;20047;-85
2021/05/17 01:53:53;;;;;;;0.13;0.13;;;9.20;99.90;;;;;;5075563;28;20055;-85
2021/05/17 01:56:19;;;;;;;0.10;0.10;;;9.10;99.90;;;;;;5086845;28;20044;-85
2021/05/17 01:58:46;;;;;;;0.90;0.88;;;9.30;99.90;;;;;;5079109;28;20032;-85
2021/05/17 02:01:14;;;;;;;1.87;0.30;;;9.30;99.90;;;;;;5082926;28;20040;-85
2021/05/17 02:03:42;;;;;;;0.93;0.88;;;9.30;99.90;;;;;;5066476;28;20361;-85
2021/05/17 02:06:10;;;;;;;1.20;1.10;;;9.40;99.90;;;;;;5063495;28;20029;-85
2021/05/17 02:08:43;;;;;;;4.88;1.77;;;9.50;99.90;;;;;;5074434;28;20024;-85
2021/05/17 02:11:17;;;;;;;0.80;0.80;;;9.50;99.90;;;;;;5081585;28;20122;-85
2021/05/17 02:13:44;;;;;;;0.17;0.17;;;9.50;99.90;;;;;;5075321;28;20048;-85
2021/05/17 02:16:14;;;;;;;0.10;0.10;;;9.50;99.90;;;;;;5081849;28;20031;-85
2021/05/17 02:18:42;;;;;;;0.10;0.10;;;9.30;99.90;;;;;;5086466;28;20521;-85
2021/05/17 02:21:09;;;;;;;0.10;0.10;;;9.30;99.90;;;;;;5078388;28;20033;-84
2021/05/17 02:23:35;;;;;;;0.10;0.10;;;9.40;99.90;;;;;;5084839;28;20063;-85
2021/05/17 02:26:02;;;;;;;0.20;0.20;;;9.50;99.90;;;;;;5078954;28;20035;-84
2021/05/17 02:28:28;;;;;;;0.43;0.38;;;9.60;99.90;;;;;;5075244;28;20028;-85
2021/05/17 02:30:54;;;;;;;0.40;0.40;;;9.60;99.90;;;;;;5075286;28;20110;-85
2021/05/17 02:33:21;;;;;;;7.38;2.38;;;9.70;99.90;;;;;;5085946;28;20017;-86
2021/05/17 02:35:47;;;;;;;0.20;0.20;;;9.70;99.90;;;;;;5069363;28;20025;-85
2021/05/17 02:38:13;;;;;;;0.20;0.20;;;9.60;99.90;;;;;;5069487;28;20066;-86
2021/05/17 02:40:40;;;;;;;0.82;0.82;;;9.70;99.90;;;;;;5084103;28;20377;-85
2021/05/17 02:43:11;;;;;;;1.77;1.15;;;9.60;99.90;;;;;;5085521;28;20024;-86
2021/05/17 02:45:55;;;;;;;0.10;0.10;;;9.60;99.90;;;;;;5077796;28;20024;-86
2021/05/17 02:48:40;;;;;;;0.40;0.40;;;9.60;99.90;;;;;;5079285;28;20024;-86
2021/05/17 02:51:09;;;;;;;1.13;0.77;;;9.70;99.90;;;;;;5080009;28;20032;-87
2021/05/17 02:53:38;;;;;;;24.50;1.60;;;9.70;99.90;;;;;;5084150;28;20055;-87
2021/05/17 02:56:09;;;;;;;6.22;1.42;;;9.60;99.90;;;;;;5066854;28;20037;-87
2021/05/17 02:58:37;;;;;;;0.30;0.20;;;9.50;99.90;;;;;;5069327;28;20715;-86
2021/05/17 03:01:07;;;;;;;0.30;0.30;;;9.50;99.90;;;;;;5073912;28;20611;-85
2021/05/17 03:03:47;;;;;;;2.10;0.88;;;9.40;99.90;;;;;;5070780;28;20023;-86
2021/05/17 03:06:34;;;;;;;0.35;0.35;;;9.40;99.90;;;;;;5069400;28;20033;-86
2021/05/17 03:09:05;;;;;;;0.30;0.30;;;9.40;99.90;;;;;;5072641;28;20074;-86
2021/05/17 03:11:31;;;;;;;0.25;0.25;;;9.40;99.90;;;;;;5075872;28;20480;-87
2021/05/17 03:13:58;;;;;;;0.50;0.43;;;9.40;99.90;;;;;;5087717;28;20047;-87
2021/05/17 03:16:25;;;;;;;;;;;9.40;99.90;;;;;;5087803;28;20031;-87
2021/05/17 03:18:51;;;;;;;;;;;9.30;99.90;;;;;;5080024;28;19908;-86
2021/05/17 03:21:21;;;;;;;3.25;1.05;;;9.30;99.90;;;;;;5079838;28;20402;-85
2021/05/17 03:23:48;;;;;;;0.20;0.20;;;9.20;1.00;;;;;;5083765;28;20032;-85
2021/05/17 03:26:21;;;;;;;1.25;1.08;;;9.30;99.90;;;;;;5062966;28;20032;-86
2021/05/17 03:28:48;;;;;;;0.10;0.10;;;9.20;99.90;;;;;;5057569;28;21409;-86
2021/05/17 03:31:14;;;;;;;0.28;0.28;;;9.20;99.90;;;;;;5069845;28;20649;-86
2021/05/17 03:33:39;;;;;;;0.73;0.20;;;9.10;99.90;;;;;;5073263;28;20028;-86
2021/05/17 03:36:06;;;;;;;0.30;0.30;;;9.10;99.90;;;;;;5075299;28;20130;-86
2021/05/17 03:38:32;;;;;;;0.40;0.40;;;9.00;36.00;;;;;;5075142;28;20063;-85
2021/05/17 03:40:57;;;;;;;0.30;0.30;;;8.80;1.00;;;;;;5087699;28;20314;-86
2021/05/17 03:43:23;;;;;;;0.15;0.15;;;8.70;99.90;;;;;;5084067;28;20078;-86
2021/05/17 03:45:58;;;;;;;0.47;0.47;;;8.60;99.90;;;;;;5084449;28;20032;-84
2021/05/17 03:48:37;;;;;;;1.90;1.30;;;8.60;99.90;;;;;;5081883;28;20020;-85
2021/05/17 03:51:07;;;;;;;0.75;0.75;;;8.50;99.90;;;;;;5086643;28;20028;-85
2021/05/17 03:53:33;;;;;;;0.10;0.10;;;8.40;99.90;;;;;;5089392;28;20020;-85
2021/05/17 03:55:58;;;;;;;0.45;0.35;;;8.40;99.90;;;;;;5089869;28;20039;-85
2021/05/17 03:58:24;;;;;;;0.25;0.25;;;8.30;99.90;;;;;;5080497;28;20130;-85
2021/05/17 04:00:50;;;;;;;0.77;0.77;;;8.30;99.90;;;;;;5080170;28;20055;-85
2021/05/17 04:03:18;;;;;;;0.45;0.38;;;8.30;99.90;;;;;;5078299;28;20027;-85
2021/05/17 04:13:55;;;;;;;0.10;0.10;;;8.20;99.90;;;;;;5089887;28;20046;-85
2021/05/17 04:16:21;;;;;;;;;;;8.20;99.90;;;;;;5069590;28;20027;-85
2021/05/17 04:18:48;;;;;;;0.05;0.05;;;8.20;99.90;;;;;;5068186;28;20341;-85
2021/05/17 04:21:14;;;;;;;3.03;0.50;;;8.20;99.90;;;;;;5080473;28;20123;-85
2021/05/17 04:23:40;;;;;;;3.95;2.08;;;8.20;99.90;;;;;;5086236;28;20135;-85
2021/05/17 04:26:06;;;;;;;0.22;0.22;;;8.30;99.90;;;;;;5078758;28;20025;-85
2021/05/17 04:28:32;;;;;;;0.32;0.32;;;8.60;99.90;;;;;;5069204;28;20037;-85
2021/05/17 04:30:58;;;;;;;0.45;0.45;;;8.80;99.90;;;;;;5071719;28;20824;-85
2021/05/17 04:33:24;;;;;;;0.10;0.10;;;8.90;99.90;;;;;;5069654;28;20121;-85
2021/05/17 04:35:50;;;;;;;0.10;0.10;;;8.90;99.90;;;;;;5080977;28;20066;-85
2021/05/17 04:38:16;;;;;;;0.20;0.20;;;9.00;99.90;;;;;;5078477;28;20020;-85
2021/05/17 04:40:44;;;;;;;0.30;0.30;;;9.00;99.90;;;;;;5085211;28;20073;-85
2021/05/17 04:43:10;;;;;;;0.25;0.25;;;9.10;99.90;;;;;;5083784;28;20027;-85
2021/05/17 04:45:39;;;;;;;0.20;0.20;;;9.20;99.90;;;;;;5076669;28;20074;-87
2021/05/17 04:48:10;;;;;;;0.10;0.10;;;9.20;99.90;;;;;;5078493;28;20034;-87
2021/05/17 04:50:36;;;;;;;1.40;1.20;;;9.30;99.90;;;;;;5073421;28;20029;-87
2021/05/17 04:53:02;;;;;;;0.13;0.13;;;9.40;99.90;;;;;;5068917;28;20510;-87
2021/05/17 04:55:28;;;;;;;0.30;0.30;;;9.40;99.90;;;;;;5067065;28;20744;-87
2021/05/17 04:57:54;;;;;;;1.63;1.52;;;9.50;99.90;;;;;;5069509;28;20047;-86
2021/05/17 05:00:20;;;;;;;1.45;1.30;;;9.50;99.90;;;;;;5071136;28;20036;-87
2021/05/17 05:02:45;;;;;;;1.00;1.00;;;9.50;99.90;;;;;;5087080;28;20552;-87
2021/05/17 05:05:12;;;;;;;0.20;0.20;;;9.60;99.90;;;;;;5073045;28;20147;-86
2021/05/17 05:07:38;;;;;;;1.92;1.10;;;9.50;99.90;;;;;;5067283;28;20789;-86
2021/05/17 05:10:07;;;;;;;0.55;0.55;;;9.60;99.90;;;;;;5079977;28;20050;-87
2021/05/17 05:12:33;;;;;;;0.32;0.32;;;9.60;99.90;;;;;;5072414;28;20390;-86
2021/05/17 05:14:58;;;;;;;1.23;1.17;;;9.60;99.90;;;;;;5068526;28;20059;-86
2021/05/17 05:17:48;;;;;;;0.10;0.10;;;9.60;99.90;;;;;;5067370;28;20067;-88
2021/05/17 05:20:16;;;;;;;0.20;0.20;;;9.70;99.90;;;;;;5083046;28;20021;-89
2021/05/17 05:22:44;;;;;;;;;;;9.60;99.90;;;;;;5070324;28;20033;-87
2021/05/17 05:25:12;;;;;;;0.10;0.10;;;9.60;99.90;;;;;;5077560;28;19912;-88
2021/05/17 05:27:45;;;;;;;0.45;0.45;;;9.70;99.90;;;;;;5069103;28;20024;-88
2021/05/17 05:32:56;;;;;;;0.20;0.20;;;9.70;99.90;;;;;;5059550;28;20033;-88
2021/05/17 05:35:27;;;;;;;0.22;0.22;;;9.70;99.90;;;;;;5062912;28;20575;-87
2021/05/17 05:37:54;;;;;;;0.10;0.10;;;9.70;99.90;;;;;;5066332;28;20020;-88
2021/05/17 05:40:21;;;;;;;0.13;0.13;;;9.80;99.90;;;;;;5075921;28;20115;-88
2021/05/17 05:42:47;;;;;;;0.13;0.13;;;9.90;99.90;;;;;;5085744;28;20408;-91
2021/05/17 05:45:14;;;;;;;0.00;0.00;;;9.90;99.90;;;;;;5082285;28;20074;-90
2021/05/17 05:47:40;;;;;;;0.17;0.17;;;9.90;99.90;;;;;;5079052;28;20495;-88
2021/05/17 05:50:07;;;;;;;0.57;0.57;;;9.80;99.90;;;;;;5080992;28;20024;-88
2021/05/17 05:52:33;;;;;;;0.25;0.25;;;9.80;99.90;;;;;;5070353;28;20120;-86
2021/05/17 05:55:05;;;;;;;0.47;0.47;;;9.70;99.90;;;;;;5061307;28;20124;-87
2021/05/17 05:57:44;;;;;;;0.85;0.82;;;9.90;99.90;;;;;;5062902;28;20455;-87
2021/05/17 06:00:17;;;;;;;1.23;1.20;;;9.90;99.90;;;;;;5059182;28;20039;-88
2021/05/17 06:02:44;;;;;;;0.57;0.57;;;9.90;99.90;;;;;;5057527;28;20508;-86
2021/05/17 06:05:12;;;;;;;9.48;3.10;;;10.10;99.90;;;;;;5040710;28;20029;-87
2021/05/17 06:07:38;;;;;;;1.48;1.38;;;10.20;99.90;;;;;;5062024;28;20017;-86
2021/05/17 06:10:11;;;;;;;2.15;2.05;;;10.00;99.90;;;;;;5063657;28;20511;-88
2021/05/17 06:12:40;;;;;;;1.10;1.10;;;10.00;99.90;;;;;;5077642;28;20039;-87
2021/05/17 06:15:10;;;;;;;6.45;1.48;;;10.00;99.90;;;;;;5055205;28;20493;-88
2021/05/17 06:17:36;;;;;;;2.83;1.65;;;10.10;99.90;;;;;;5061007;28;20061;-89
2021/05/17 06:20:07;;;;;;;0.23;0.23;;;10.00;99.90;;;;;;5057765;28;20112;-86
2021/05/17 06:22:38;;;;;;;1.90;1.60;;;10.00;99.90;;;;;;5066026;28;20286;-89
2021/05/17 06:25:14;;;;;;;1.10;0.90;;;9.90;99.90;;;;;;5078069;28;20052;-89
2021/05/17 06:27:44;;;;;;;0.45;0.45;;;9.80;33.70;;;;;;5074284;28;20402;-87
2021/05/17 06:30:12;;;;;;;1.55;1.42;;;9.70;1.00;;;;;;5077861;28;20081;-90
2021/05/17 06:32:39;;;;;;;0.73;0.73;;;9.70;99.90;;;;;;5077734;28;20039;-89
2021/05/17 06:35:06;;;;;;;;;;;9.80;99.90;;;;;;5081661;28;20449;-89
2021/05/17 06:37:32;;;;;;;0.38;0.38;;;9.70;99.90;;;;;;5081020;28;20446;-88
2021/05/17 06:39:58;;;;;;;2.22;0.70;;;9.80;99.90;;;;;;5064008;28;20033;-90
2021/05/17 06:42:24;;;;;;;0.63;0.63;;;9.90;99.90;;;;;;5062418;28;20017;-89
2021/05/17 06:44:50;;;;;;;0.10;0.10;;;9.80;99.90;;;;;;5065894;28;20047;-89
2021/05/17 06:47:17;;;;;;;0.20;0.20;;;9.80;99.90;;;;;;5077675;28;20024;-89
2021/05/17 06:49:43;;;;;;;;;;;9.80;99.90;;;;;;5083036;28;20517;-90
2021/05/17 06:52:12;;;;;;;2.57;2.37;;;9.90;99.90;;;;;;5075000;28;19912;-88
2021/05/17 06:54:39;;;;;;;0.70;0.70;;;9.90;99.90;;;;;;5082037;28;20027;-89
2021/05/17 06:57:22;;;;;;;0.40;0.40;;;9.90;99.90;;;;;;5070714;28;20039;-86
2021/05/17 06:59:55;;;;;;;0.93;0.93;;;9.90;99.90;;;;;;5080550;28;20081;-85
2021/05/17 07:02:22;;;;;;;7.28;0.90;;;9.90;99.90;;;;;;5079107;28;20130;-86
2021/05/17 07:04:50;;;;;;;0.80;0.63;;;10.10;99.90;;;;;;5077597;28;20028;-86
2021/05/17 07:07:22;;;;;;;0.93;0.93;;;10.10;99.90;;;;;;5081349;28;20079;-86
2021/05/17 07:12:32;;;;;;;2.13;1.83;;;10.20;99.90;;;;;;5082247;28;20047;-86
2021/05/17 07:15:01;;;;;;;0.28;0.28;;;10.00;99.90;;;;;;5079163;28;20048;-88
2021/05/17 07:17:29;;;;;;;0.63;0.63;;;10.20;5.20;;;;;;5071620;28;20072;-87
2021/05/17 07:19:55;;;;;;;0.52;0.52;;;10.20;99.90;;;;;;5075364;28;20047;-86
2021/05/17 07:25:05;;;;;;;0.47;0.47;;;10.10;9.60;;;;;;5081178;28;20082;-86
2021/05/17 07:27:32;;;;;;;0.38;0.38;;;10.20;99.90;;;;;;5079929;28;20019;-87
2021/05/17 07:29:58;;;;;;;;;;;10.20;1.00;;;;;;5080352;28;20028;-86
2021/05/17 07:32:24;;;;;;;37.03;0.97;;;10.20;99.90;;;;;;5069413;28;19908;-86
2021/05/17 07:34:49;;;;;;;0.13;0.13;;;10.40;99.90;;;;;;5082983;28;20024;-86
2021/05/17 07:37:16;;;;;;;0.47;0.30;;;10.70;11.30;;;;;;5073303;28;20046;-86
2021/05/17 07:39:42;;;;;;;0.15;0.15;;;13.40;99.90;;;;;;5068145;28;20024;-85
2021/05/17 07:42:09;;;;;;;1.15;0.82;;;16.80;99.90;;;;;;5065833;28;20032;-85
2021/05/17 07:44:37;;;;;;;;;;;16.80;99.90;;;;;;5070489;28;20019;-85
2021/05/17 07:47:04;;;;;;;0.00;0.00;;;16.30;99.90;;;;;;5061949;28;20610;-85
2021/05/17 07:50:15;;;;;;;6.18;3.03;;;16.40;99.90;;;;;;5073406;28;20081;-84
2021/05/17 07:52:16;;;;;;;0.65;0.65;;;14.00;99.90;;;;;;5056924;28;20044;-85
2021/05/17 07:54:42;;;;;;;2.73;0.97;;;13.00;99.90;;;;;;5070205;28;20046;-84
2021/05/17 07:57:08;;;;;;;0.10;0.10;;;12.90;99.90;;;;;;5088076;28;20266;-84
2021/05/17 07:59:34;;;;;;;0.23;0.23;;;12.80;99.90;;;;;;5077364;28;20036;-84
2021/05/17 08:02:01;;;;;;;12.97;1.90;;;12.50;99.90;;;;;;5071614;28;20033;-86
2021/05/17 08:04:28;;;;;;;0.65;0.65;;;12.00;99.90;;;;;;5072653;28;20062;-86
2021/05/17 08:06:55;;;;;;;1.80;1.35;;;12.10;99.90;;;;;;5063481;28;20029;-85
2021/05/17 08:09:23;;;;;;;1.02;1.00;;;11.90;99.90;;;;;;5064520;28;20911;-86
2021/05/17 08:11:50;;;;;;;0.10;0.10;;;11.90;99.90;;;;;;5058245;28;20037;-86
2021/05/17 08:14:17;;;;;;;0.00;0.00;;;12.50;99.90;;;;;;5063824;28;20028;-85
2021/05/17 08:16:43;;;;;;;0.43;0.43;;;12.20;99.90;;;;;;5059261;28;20062;-85
2021/05/17 08:19:15;;;;;;;0.20;0.20;;;11.60;99.90;;;;;;5069340;28;20037;-86
2021/05/17 08:21:42;;;;;;;11.95;3.00;;;11.50;99.90;;;;;;5081156;28;20031;-87
2021/05/17 08:24:08;;;;;;;;;;;11.30;99.90;;;;;;5085799;28;20115;-87
2021/05/17 08:26:34;;;;;;;0.10;0.10;;;11.10;99.90;;;;;;5086867;28;19987;-87
2021/05/17 08:29:00;;;;;;;0.40;0.40;;;10.90;99.90;;;;;;5082139;28;20032;-87
2021/05/17 08:31:26;;;;;;;0.38;0.32;;;11.00;99.90;;;;;;5076719;28;20023;-86
2021/05/17 08:33:52;;;;;;;0.13;0.13;;;10.90;29.70;;;;;;5080104;28;20514;-86
2021/05/17 08:36:18;;;;;;;0.52;0.52;;;10.90;99.90;;;;;;5064841;28;20033;-86
2021/05/17 08:38:44;;;;;;;0.20;0.20;;;10.90;99.90;;;;;;5054647;28;20025;-86
2021/05/17 08:41:14;;;;;;;1.27;1.17;;;10.90;99.90;;;;;;5057236;28;20037;-86
2021/05/17 08:43:43;;;;;;;0.10;0.10;;;11.40;99.90;;;;;;5077788;28;20078;-86
2021/05/17 08:46:11;;;;;;;0.50;0.50;;;11.60;99.90;;;;;;5080885;28;20107;-86
2021/05/17 08:48:47;;;;;;;0.65;0.65;;;12.90;1.00;;;;;;5072361;28;20024;-84
2021/05/17 08:51:15;;;;;;;0.10;0.10;;;12.60;99.90;;;;;;5070820;28;20069;-86
2021/05/17 08:53:42;;;;;;;0.10;0.10;;;12.10;99.90;;;;;;5064784;28;20480;-86
2021/05/17 08:56:09;;;;;;;0.30;0.30;;;12.30;1.00;;;;;;5065922;28;20518;-86
2021/05/17 08:58:35;;;;;;;0.20;0.20;;;12.70;99.90;;;;;;5068329;28;20020;-84
2021/05/17 09:01:03;;;;;;;0.03;0.03;;;12.50;1.00;;;;;;5063885;28;20036;-83
2021/05/17 09:03:31;;;;;;;0.90;0.45;;;11.70;79.20;;;;;;5066377;28;20067;-84
2021/05/17 09:05:57;;;;;;;0.85;0.85;;;13.60;99.90;;;;;;5057423;28;20020;-84
2021/05/17 09:08:26;;;;;;;1.08;0.52;;;17.00;99.90;;;;;;5061616;28;20036;-84
2021/05/17 09:10:52;;;;;;;0.75;0.75;;;15.20;99.90;;;;;;5069620;28;20025;-84
2021/05/17 09:13:18;;;;;;;0.20;0.20;;;17.90;99.90;;;;;;5075902;28;20028;-84
2021/05/17 09:15:49;;;;;;;;;;;18.10;99.90;;;;;;5072218;28;20418;-84
2021/05/17 09:18:26;;;;;;;0.50;0.50;;;19.40;99.90;;;;;;5072309;28;20380;-84
2021/05/17 09:20:54;;;;;;;0.00;0.00;;;16.70;99.90;;;;;;5044758;28;20029;-84
2021/05/17 09:23:30;;;;;;;0.90;0.70;;;19.00;99.90;;;;;;5071697;28;20024;-83
2021/05/17 09:26:08;;;;;;;1.30;0.30;;;19.20;99.90;;;;;;5074367;28;20036;-83
2021/05/17 09:28:45;;;;;;;0.10;0.10;;;16.40;99.90;;;;;;5061619;28;20275;-83
2021/05/17 09:31:40;;;;;;;1.80;1.42;;;18.80;99.90;;;;;;5062151;28;20013;-84
2021/05/17 09:34:06;;;;;;;0.15;0.13;;;16.80;99.90;;;;;;5072001;28;20017;-84
2021/05/17 09:36:41;;;;;;;0.15;0.15;;;16.20;99.90;;;;;;5070072;28;20028;-84
2021/05/17 09:39:12;;;;;;;0.20;0.20;;;17.30;99.90;;;;;;5066371;28;20019;-83
2021/05/17 09:41:50;;;;;;;2.08;0.70;;;15.70;99.90;;;;;;5069617;28;20032;-83
2021/05/17 09:44:21;;;;;;;4.45;1.70;;;14.70;99.90;;;;;;5076540;28;20488;-83
2021/05/17 09:47:00;;;;;;;0.10;0.10;;;15.50;99.90;;;;;;5056569;28;20439;-83
2021/05/17 09:49:38;;;;;;;0.30;0.30;;;14.90;99.90;;;;;;5056600;28;20050;-83
2021/05/17 09:52:28;;;;;;;0.30;0.30;;;18.30;99.90;;;;;;5077752;28;20095;-84
2021/05/17 09:55:04;;;;;;;3.40;1.02;;;21.30;99.90;;;;;;5061873;28;20086;-84
2021/05/17 09:57:41;;;;;;;0.25;0.22;;;22.60;99.90;;;;;;5084335;28;20060;-84
2021/05/17 10:00:09;;;;;;;1.35;1.00;;;20.30;99.90;;;;;;5081008;28;20035;-83
2021/05/17 10:02:37;;;;;;;1.40;1.15;;;16.40;99.90;;;;;;5077855;28;20119;-84
2021/05/17 10:05:30;;;;;;;0.10;0.10;;;20.70;99.90;;;;;;5063911;28;20475;-84
2021/05/17 10:07:58;;;;;;;0.00;0.00;;;18.60;99.90;;;;;;5070869;28;20110;-84
2021/05/17 10:10:25;;;;;;;0.73;0.57;;;16.00;99.90;;;;;;5067222;28;20029;-84
2021/05/17 10:12:56;;;;;;;0.17;0.17;;;15.90;99.90;;;;;;5064012;28;20024;-83
2021/05/17 10:15:26;;;;;;;0.10;0.10;;;19.70;99.90;;;;;;5058548;28;20048;-83
2021/05/17 10:17:58;;;;;;;0.00;0.00;;;18.10;99.90;;;;;;5052797;28;20032;-83
2021/05/17 10:20:25;;;;;;;0.43;0.43;;;22.20;99.90;;;;;;5058991;28;20028;-83
2021/05/17 10:22:52;;;;;;;0.75;0.75;;;22.50;99.90;;;;;;5082174;28;20043;-84
2021/05/17 10:25:25;;;;;;;0.10;0.10;;;21.20;99.90;;;;;;5060911;28;20225;-84
2021/05/17 10:27:54;;;;;;;0.10;0.10;;;23.80;99.90;;;;;;5055442;28;20021;-85
2021/05/17 10:30:32;;;;;;;0.20;0.20;;;26.70;99.90;;;;;;5063399;28;20024;-84
2021/05/17 10:33:00;;;;;;;0.00;0.00;;;25.50;99.90;;;;;;5060907;28;20063;-84
2021/05/17 10:35:49;;;;;;;0.10;0.10;;;21.20;99.90;;;;;;5054864;28;20025;-84
2021/05/17 10:38:20;;;;;;;0.40;0.40;;;17.80;99.90;;;;;;5056218;28;20381;-83
2021/05/17 10:40:50;;;;;;;5.45;0.75;;;17.80;99.90;;;;;;5052843;28;20029;-83
2021/05/17 10:44:00;;;;;;;0.22;0.22;;;16.70;99.90;;;;;;5061418;28;20119;-83
2021/05/17 10:46:39;;;;;;;0.17;0.17;;;17.60;99.90;;;;;;5067257;28;20020;-84
2021/05/17 10:49:18;;;;;;;0.10;0.10;;;18.00;99.90;;;;;;5061204;28;20040;-83
2021/05/17 10:51:45;;;;;;;0.30;0.30;;;17.70;99.90;;;;;;5060873;28;20167;-83
2021/05/17 10:54:23;;;;;;;0.13;0.13;;;16.90;99.90;;;;;;5061703;28;20672;-84
2021/05/17 10:57:01;;;;;;;0.10;0.10;;;16.70;99.90;;;;;;5062313;28;20494;-82
2021/05/17 11:02:34;;;;;;;0.00;0.00;;;14.30;99.90;;;;;;5067276;28;20477;-82
2021/05/17 11:05:21;;;;;;;0.10;0.10;;;13.30;99.90;;;;;;5064835;28;20051;-83
2021/05/17 11:07:52;;;;;;;0.10;0.10;;;13.00;99.90;;;;;;5066094;28;20487;-83
2021/05/17 11:10:41;;;;;;;0.20;0.20;;;12.80;99.90;;;;;;5068126;28;20021;-82
2021/05/17 11:13:20;;;;;;;0.50;0.32;;;12.70;85.50;;;;;;5066425;28;20049;-83
2021/05/17 11:15:53;;;;;;;0.22;0.22;;;14.40;99.90;;;;;;5067364;28;20044;-85
2021/05/17 11:18:23;;;;;;;0.20;0.20;;;18.00;99.90;;;;;;5060724;28;20102;-85
2021/05/17 11:21:02;;;;;;;0.10;0.10;;;19.70;99.90;;;;;;5072254;28;20032;-83
2021/05/17 11:23:31;;;;;;;0.10;0.10;;;20.10;99.90;;;;;;5063115;28;20021;-84
2021/05/17 11:26:04;;;;;;;0.30;0.30;;;20.70;99.90;;;;;;5057037;28;20028;-83
2021/05/17 11:28:39;;;;;;;0.00;0.00;;;17.90;99.90;;;;;;5054767;28;20013;-82
2021/05/17 11:31:12;;;;;;;0.13;0.13;;;15.40;99.90;;;;;;5058205;28;20029;-82
2021/05/17 11:33:57;;;;;;;0.47;0.47;;;15.50;99.90;;;;;;5070894;28;20017;-83
2021/05/17 11:36:27;;;;;;;2.42;0.82;;;15.60;99.90;;;;;;5062251;28;20085;-82
2021/05/17 11:39:16;;;;;;;5.47;2.75;;;16.00;99.90;;;;;;5057789;28;20021;-82
2021/05/17 11:41:55;;;;;;;0.50;0.50;;;16.50;99.90;;;;;;5052656;28;20124;-82
2021/05/17 11:44:22;;;;;;;0.10;0.10;;;16.20;99.90;;;;;;5057006;28;20044;-83
2021/05/17 11:46:52;;;;;;;0.00;0.00;;;17.30;99.90;;;;;;5060169;28;20377;-82
2021/05/17 11:49:20;;;;;;;0.00;0.00;;;17.60;99.90;;;;;;5052926;28;20690;-82
2021/05/17 11:51:50;;;;;;;0.10;0.10;;;16.80;99.90;;;;;;5075678;28;20020;-83
2021/05/17 11:54:17;;;;;;;0.17;0.17;;;16.90;99.90;;;;;;5070362;28;20139;-82
2021/05/17 11:56:46;;;;;;;0.10;0.10;;;16.80;99.90;;;;;;5058188;28;20080;-83
2021/05/17 11:59:18;;;;;;;0.30;0.15;;;16.00;99.90;;;;;;5071061;28;20040;-82
2021/05/17 12:01:46;;;;;;;1.65;0.55;;;15.20;99.90;;;;;;5074181;28;20032;-83
2021/05/17 12:04:29;;;;;;;5.00;0.30;;;14.60;1.00;;;;;;5061411;28;20013;-83
2021/05/17 12:06:59;;;;;;;14.80;0.68;;;13.80;84.90;;;;;;5048876;28;20021;-84
2021/05/17 12:09:34;;;;;;;0.55;0.55;;;12.30;99.90;;;;;;5063911;28;20028;-81
2021/05/17 12:12:03;;;;;;;0.00;0.00;;;11.90;99.90;;;;;;5068063;28;20031;-82
2021/05/17 12:14:35;;;;;;;1.40;0.20;;;12.40;99.90;;;;;;5064209;28;20059;-85
2021/05/17 12:17:21;;;;;;;0.75;0.40;;;12.30;99.90;;;;;;5061846;28;20504;-85
2021/05/17 12:19:59;;;;;;;0.20;0.20;;;12.90;99.90;;;;;;5061582;28;20446;-84
2021/05/17 12:22:40;;;;;;;0.10;0.10;;;12.90;99.90;;;;;;5061980;28;20098;-85
2021/05/17 12:25:14;;;;;;;0.10;0.10;;;13.30;99.90;;;;;;5063680;28;20035;-82
2021/05/17 12:27:41;;;;;;;0.10;0.10;;;14.20;99.90;;;;;;5061903;28;20098;-84
2021/05/17 12:30:15;;;;;;;;;;;14.90;99.90;;;;;;5071152;28;20042;-84
2021/05/17 12:33:03;;;;;;;0.10;0.10;;;16.10;99.90;;;;;;5069538;28;19909;-84
2021/05/17 12:35:31;;;;;;;0.10;0.10;;;16.10;99.90;;;;;;5064425;28;20718;-84
2021/05/17 12:38:05;;;;;;;0.00;0.00;;;16.00;99.90;;;;;;5068612;28;20024;-82
2021/05/17 12:40:36;;;;;;;0.35;0.35;;;15.50;99.90;;;;;;5064709;28;20025;-82
2021/05/17 12:43:18;;;;;;;0.08;0.08;;;15.80;99.90;;;;;;5073929;28;20844;-82
2021/05/17 12:45:44;;;;;;;0.20;0.20;;;15.90;99.90;;;;;;5072497;28;20101;-82
2021/05/17 12:48:17;;;;;;;0.10;0.10;;;16.10;99.90;;;;;;5067509;28;20431;-82
2021/05/17 12:50:44;;;;;;;2.30;0.90;;;16.50;99.90;;;;;;5075076;28;20026;-82
2021/05/17 12:53:13;;;;;;;1.58;0.75;;;16.20;99.90;;;;;;5065971;28;20506;-84
2021/05/17 12:55:49;;;;;;;0.17;0.17;;;16.10;99.90;;;;;;5063148;28;20082;-83
2021/05/17 12:58:41;;;;;;;5.87;0.30;;;16.20;99.90;;;;;;5076345;28;20025;-84
2021/05/17 13:01:13;;;;;;;0.08;0.08;;;16.20;99.90;;;;;;5065244;28;21327;-84
2021/05/17 13:03:44;;;;;;;0.20;0.20;;;16.40;99.90;;;;;;5065852;28;20038;-84
2021/05/17 13:06:18;;;;;;;0.13;0.13;;;16.70;99.90;;;;;;5073494;28;20017;-84
2021/05/17 13:08:55;;;;;;;0.25;0.25;;;17.10;99.90;;;;;;5069618;28;20734;-84
2021/05/17 13:11:32;;;;;;;0.28;0.28;;;17.00;99.90;;;;;;5064162;28;20135;-84
2021/05/17 13:14:13;;;;;;;0.17;0.17;;;16.40;99.90;;;;;;5055372;28;20099;-84
2021/05/17 13:16:57;;;;;;;0.10;0.10;;;16.60;99.90;;;;;;5061827;28;20025;-84
2021/05/17 13:29:58;;;;;;;0.00;0.00;;;16.80;99.90;;;;;;5075582;28;20031;-82
2021/05/17 13:31:05;;;;;;;0.20;0.20;;;16.10;99.90;;;;;;5080134;28;20438;-82
2021/05/17 13:33:32;;;;;;;0.10;0.10;;;16.70;99.90;;;;;;5067087;28;20050;-82
2021/05/17 13:36:08;;;;;;;0.10;0.10;;;17.30;99.90;;;;;;5067992;28;20032;-82
2021/05/17 13:38:39;;;;;;;0.10;0.10;;;17.20;99.90;;;;;;5069809;28;20032;-82